createdAt,value
2022-08-17T00:01:53.246Z,100.00
2022-08-17T00:04:37.279Z,100.00
2022-08-17T00:07:15.292Z,100.00
2022-08-17T00:10:00.898Z,100.00
2022-08-17T00:12:45.269Z,100.00
2022-08-17T00:15:34.903Z,100.00
2022-08-17T00:19:06.139Z,100.00
2022-08-17T00:21:25.151Z,100.00
2022-08-17T00:23:56.250Z,100.00
2022-08-17T00:26:45.174Z,100.00
2022-08-17T00:29:24.268Z,100.00
2022-08-17T00:33:12.432Z,100.00
2022-08-17T00:35:11.912Z,100.00
2022-08-17T00:37:57.872Z,100.00
2022-08-17T00:40:45.607Z,100.00
2022-08-17T00:43:42.265Z,100.00
2022-08-17T00:46:23.389Z,100.00
2022-08-17T00:49:12.619Z,100.00
2022-08-17T00:52:10.693Z,100.00
2022-08-17T00:54:55.181Z,100.00
2022-08-17T00:57:53.391Z,100.00
2022-08-17T01:00:36.319Z,100.00
2022-08-17T01:03:34.537Z,100.00
2022-08-17T01:06:09.551Z,100.00
2022-08-17T01:08:57.563Z,100.00
2022-08-17T01:11:39.046Z,100.00
2022-08-17T01:14:19.438Z,100.00
2022-08-17T01:16:58.345Z,100.00
2022-08-17T01:19:34.432Z,100.00
2022-08-17T01:22:32.631Z,100.00
2022-08-17T01:25:26.196Z,100.00
2022-08-17T01:28:07.233Z,100.00
2022-08-17T01:30:56.697Z,100.00
2022-08-17T01:33:40.451Z,100.00
2022-08-17T01:36:26.946Z,100.00
2022-08-17T01:39:04.303Z,100.00
2022-08-17T01:41:47.465Z,100.00
2022-08-17T01:44:24.413Z,100.00
2022-08-17T01:50:01.977Z,100.00
2022-08-17T01:52:46.551Z,100.00
2022-08-17T01:55:33.994Z,100.00
2022-08-17T01:58:17.851Z,100.00
2022-08-17T02:01:00.762Z,100.00
2022-08-17T02:03:59.209Z,100.00
2022-08-17T02:06:53.537Z,100.00
2022-08-17T02:09:30.233Z,100.00
2022-08-17T02:12:37.852Z,100.00
2022-08-17T02:15:21.217Z,100.00
2022-08-17T02:17:54.593Z,100.00
2022-08-17T02:20:41.394Z,100.00
2022-08-17T02:23:21.300Z,100.00
2022-08-17T02:26:09.036Z,100.00
2022-08-17T02:29:01.800Z,100.00
2022-08-17T02:31:56.643Z,100.00
2022-08-17T02:34:29.306Z,100.00
2022-08-17T02:37:11.230Z,100.00
2022-08-17T02:39:59.041Z,100.00
2022-08-17T02:42:49.109Z,100.00
2022-08-17T02:45:37.151Z,100.00
2022-08-17T02:48:16.275Z,100.00
2022-08-17T02:51:11.292Z,100.00
2022-08-17T02:53:47.457Z,100.00
2022-08-17T02:56:29.288Z,100.00
2022-08-17T02:59:05.199Z,100.00
2022-08-17T03:01:44.957Z,100.00
2022-08-17T03:04:18.499Z,100.00
2022-08-17T03:06:54.298Z,100.00
2022-08-17T03:09:33.974Z,100.00
2022-08-17T03:12:25.617Z,100.00
2022-08-17T03:14:58.138Z,100.00
2022-08-17T03:17:48.271Z,100.00
2022-08-17T03:20:28.114Z,100.00
2022-08-17T03:23:14.846Z,100.00
2022-08-17T03:25:53.624Z,100.00
2022-08-17T03:28:40.032Z,100.00
2022-08-17T03:31:21.816Z,100.00
2022-08-17T03:34:01.097Z,100.00
2022-08-17T03:36:36.061Z,100.00
2022-08-17T03:39:22.333Z,100.00
2022-08-17T03:42:32.369Z,100.00
2022-08-17T03:45:39.221Z,100.00
2022-08-17T03:48:46.056Z,100.00
2022-08-17T03:51:42.904Z,100.00
2022-08-17T03:54:31.281Z,100.00
2022-08-17T03:57:20.267Z,100.00
2022-08-17T03:59:58.154Z,100.00
2022-08-17T04:02:40.543Z,100.00
2022-08-17T04:05:27.279Z,100.00
2022-08-17T04:08:12.309Z,100.00
2022-08-17T04:11:01.271Z,100.00
2022-08-17T04:13:42.913Z,100.00
2022-08-17T04:16:34.916Z,100.00
2022-08-17T04:19:18.246Z,100.00
2022-08-17T04:21:59.395Z,100.00
2022-08-17T04:24:37.746Z,100.00
2022-08-17T04:27:27.507Z,100.00
2022-08-17T04:30:03.449Z,100.00
2022-08-17T04:33:05.147Z,100.00
2022-08-17T04:36:00.730Z,100.00
2022-08-17T04:38:45.129Z,100.00
2022-08-17T04:41:40.316Z,100.00
2022-08-17T04:44:30.406Z,100.00
2022-08-17T04:47:20.631Z,100.00
2022-08-17T04:50:07.687Z,100.00
2022-08-17T04:53:00.549Z,100.00
2022-08-17T04:55:36.235Z,100.00
2022-08-17T04:58:19.322Z,100.00
2022-08-17T05:00:56.843Z,100.00
2022-08-17T05:03:47.230Z,100.00
2022-08-17T05:06:22.135Z,100.00
2022-08-17T05:09:17.712Z,100.00
2022-08-17T05:11:50.841Z,100.00
2022-08-17T05:14:33.582Z,100.00
2022-08-17T05:17:20.311Z,100.00
2022-08-17T05:20:02.424Z,100.00
2022-08-17T05:22:51.577Z,100.00
2022-08-17T05:25:29.369Z,100.00
2022-08-17T05:28:12.292Z,100.00
2022-08-17T05:30:43.924Z,100.00
2022-08-17T05:33:21.104Z,100.00
2022-08-17T05:35:58.317Z,99.04
2022-08-17T05:38:35.301Z,94.76
2022-08-17T05:41:15.428Z,95.52
2022-08-17T05:43:57.291Z,93.61
2022-08-17T05:46:38.421Z,91.04
2022-08-17T05:49:17.927Z,88.63
2022-08-17T05:52:07.350Z,85.50
2022-08-17T05:55:05.581Z,82.09
2022-08-17T05:58:00.342Z,81.35
2022-08-17T06:00:56.066Z,77.24
2022-08-17T06:04:24.264Z,77.07
2022-08-17T06:07:32.949Z,72.47
2022-08-17T06:10:34.301Z,71.77
2022-08-17T06:13:23.262Z,72.02
2022-08-17T06:16:33.175Z,68.56
2022-08-17T06:19:49.247Z,68.85
2022-08-17T06:22:18.592Z,65.45
2022-08-17T06:25:22.061Z,63.22
2022-08-17T06:28:29.319Z,62.04
2022-08-17T06:31:22.359Z,60.99
2022-08-17T06:34:04.638Z,61.60
2022-08-17T06:37:14.598Z,61.36
2022-08-17T06:40:01.323Z,61.97
2022-08-17T06:43:05.940Z,59.96
2022-08-17T06:46:17.367Z,56.58
2022-08-17T06:49:29.147Z,55.96
2022-08-17T06:52:13.640Z,56.43
2022-08-17T06:55:18.057Z,53.65
2022-08-17T06:57:58.305Z,53.81
2022-08-17T07:00:43.300Z,53.02
2022-08-17T07:03:47.700Z,53.59
2022-08-17T07:06:26.331Z,52.14
2022-08-17T07:09:09.151Z,49.93
2022-08-17T07:12:11.483Z,50.26
2022-08-17T07:15:25.980Z,48.29
2022-08-17T07:17:59.789Z,46.40
2022-08-17T07:20:40.815Z,47.12
2022-08-17T07:24:03.450Z,47.98
2022-08-17T07:26:36.294Z,48.60
2022-08-17T07:29:23.991Z,46.92
2022-08-17T07:32:29.632Z,47.50
2022-08-17T07:35:57.797Z,46.07
2022-08-17T07:38:57.280Z,46.89
2022-08-17T07:41:53.318Z,46.10
2022-08-17T07:44:37.326Z,46.47
2022-08-17T07:47:40.584Z,44.81
2022-08-17T07:50:39.260Z,44.86
2022-08-17T07:53:31.263Z,44.82
2022-08-17T07:56:08.615Z,43.36
2022-08-17T07:58:46.810Z,43.41
2022-08-17T08:01:27.868Z,44.63
2022-08-17T08:05:02.037Z,44.07
2022-08-17T08:08:08.661Z,44.61
2022-08-17T08:11:00.304Z,45.02
2022-08-17T08:13:43.253Z,43.82
2022-08-17T08:16:26.093Z,43.40
2022-08-17T08:19:11.815Z,43.40
2022-08-17T08:21:59.157Z,43.25
2022-08-17T08:24:58.252Z,43.50
2022-08-17T08:28:21.875Z,42.00
2022-08-17T08:31:24.491Z,42.23
2022-08-17T08:34:44.436Z,42.55
2022-08-17T08:37:37.974Z,41.63
2022-08-17T08:40:46.054Z,41.33
2022-08-17T08:43:52.850Z,41.94
2022-08-17T08:46:40.790Z,40.02
2022-08-17T08:50:01.270Z,40.26
2022-08-17T08:52:30.953Z,41.21
2022-08-17T08:55:20.685Z,39.61
2022-08-17T08:58:31.871Z,39.09
2022-08-17T09:01:38.547Z,38.42
2022-08-17T09:05:14.751Z,38.40
2022-08-17T09:08:29.990Z,36.45
2022-08-17T09:11:30.428Z,37.26
2022-08-17T09:14:28.662Z,37.10
2022-08-17T09:17:17.138Z,36.14
2022-08-17T09:20:27.343Z,36.54
2022-08-17T09:23:08.790Z,35.79
2022-08-17T09:26:06.032Z,35.44
2022-08-17T09:28:50.263Z,35.55
2022-08-17T09:31:48.950Z,35.08
2022-08-17T09:35:09.319Z,35.51
2022-08-17T09:38:14.083Z,36.04
2022-08-17T09:41:23.984Z,34.92
2022-08-17T09:44:23.192Z,34.42
2022-08-17T09:47:30.011Z,35.60
2022-08-17T09:50:55.328Z,34.76
2022-08-17T09:53:32.814Z,33.08
2022-08-17T09:56:42.336Z,34.68
2022-08-17T09:59:35.949Z,34.50
2022-08-17T10:02:25.319Z,34.02
2022-08-17T10:05:34.200Z,35.46
2022-08-17T10:08:25.862Z,34.38
2022-08-17T10:11:45.734Z,33.09
2022-08-17T10:14:44.130Z,32.74
2022-08-17T10:17:41.673Z,31.87
2022-08-17T10:20:27.794Z,31.33
2022-08-17T10:23:29.515Z,31.09
2022-08-17T10:26:18.202Z,32.05
2022-08-17T10:28:58.783Z,31.26
2022-08-17T10:31:55.625Z,32.23
2022-08-17T10:34:42.851Z,32.19
2022-08-17T10:37:39.616Z,32.31
2022-08-17T10:40:30.980Z,33.61
2022-08-17T10:43:14.643Z,32.96
2022-08-17T10:46:10.443Z,31.48
2022-08-17T10:49:34.073Z,30.48
2022-08-17T10:52:27.321Z,30.17
2022-08-17T10:55:10.864Z,29.51
2022-08-17T10:57:49.571Z,30.34
2022-08-17T11:00:27.913Z,29.87
2022-08-17T11:03:04.992Z,30.74
2022-08-17T11:05:54.319Z,31.61
2022-08-17T11:09:03.000Z,31.46
2022-08-17T11:11:56.510Z,31.49
2022-08-17T11:15:07.223Z,30.22
2022-08-17T11:18:09.017Z,30.98
2022-08-17T11:21:06.079Z,29.89
2022-08-17T11:23:58.426Z,30.43
2022-08-17T11:26:41.645Z,29.94
2022-08-17T11:29:27.621Z,29.30
2022-08-17T11:32:37.073Z,29.23
2022-08-17T11:35:41.232Z,28.97
2022-08-17T11:38:46.230Z,29.12
2022-08-17T11:42:05.672Z,29.34
2022-08-17T11:45:31.737Z,28.63
2022-08-17T11:49:02.984Z,28.35
2022-08-17T11:52:05.086Z,28.40
2022-08-17T11:54:51.406Z,28.48
2022-08-17T11:58:09.727Z,28.72
2022-08-17T12:00:56.567Z,30.15
2022-08-17T12:03:54.671Z,29.65
2022-08-17T12:06:37.099Z,27.63
2022-08-17T12:09:26.468Z,27.17
2022-08-17T12:12:33.395Z,28.95
2022-08-17T12:15:19.720Z,27.47
2022-08-17T12:18:04.326Z,26.04
2022-08-17T12:20:56.501Z,27.19
2022-08-17T12:23:45.431Z,25.62
2022-08-17T12:26:22.762Z,27.15
2022-08-17T12:29:06.454Z,25.85
2022-08-17T12:32:02.339Z,26.43
2022-08-17T12:34:50.300Z,25.02
2022-08-17T12:37:28.161Z,25.41
2022-08-17T12:40:27.107Z,24.85
2022-08-17T12:43:12.333Z,25.67
2022-08-17T12:46:10.674Z,23.98
2022-08-17T12:48:55.081Z,23.98
2022-08-17T12:51:43.638Z,24.56
2022-08-17T12:55:06.231Z,24.56
2022-08-17T12:57:38.895Z,23.57
2022-08-17T13:00:20.092Z,24.34
2022-08-17T13:03:15.830Z,24.77
2022-08-17T13:06:09.592Z,23.77
2022-08-17T13:08:48.338Z,23.13
2022-08-17T13:11:24.907Z,24.13
2022-08-17T13:14:11.398Z,23.66
2022-08-17T13:16:58.020Z,23.14
2022-08-17T13:19:40.695Z,23.49
2022-08-17T13:22:13.990Z,22.97
2022-08-17T13:25:09.223Z,23.01
2022-08-17T13:27:43.562Z,22.29
2022-08-17T13:30:23.997Z,22.57
2022-08-17T13:32:59.293Z,22.94
2022-08-17T13:36:08.191Z,22.41
2022-08-17T13:38:51.848Z,22.66
2022-08-17T13:41:36.765Z,23.71
2022-08-17T13:44:36.951Z,22.57
2022-08-17T13:47:23.477Z,23.30
2022-08-17T13:49:55.306Z,22.21
2022-08-17T13:52:48.784Z,22.70
2022-08-17T13:55:34.026Z,22.96
2022-08-17T13:58:12.378Z,24.67
2022-08-17T14:00:50.653Z,22.38
2022-08-17T14:03:20.923Z,23.84
2022-08-17T14:06:02.658Z,22.32
2022-08-17T14:08:39.663Z,22.57
2022-08-17T14:11:25.414Z,22.85
2022-08-17T14:13:55.317Z,22.92
2022-08-17T14:16:33.684Z,22.86
2022-08-17T14:19:11.603Z,21.68
2022-08-17T14:21:45.447Z,22.53
2022-08-17T14:24:25.727Z,22.87
2022-08-17T14:27:04.600Z,22.75
2022-08-17T14:29:42.573Z,23.24
2022-08-17T14:32:32.293Z,22.06
2022-08-17T14:35:13.320Z,22.65
2022-08-17T14:37:58.828Z,22.06
2022-08-17T14:40:41.081Z,22.74
2022-08-17T14:43:20.563Z,22.25
2022-08-17T14:45:56.204Z,22.62
2022-08-17T14:48:38.670Z,22.96
2022-08-17T14:51:13.794Z,22.34
2022-08-17T14:53:47.051Z,22.66
2022-08-17T14:56:31.691Z,23.72
2022-08-17T14:59:18.054Z,23.34
2022-08-17T15:01:53.804Z,23.69
2022-08-17T15:04:31.879Z,24.82
2022-08-17T15:07:09.059Z,23.27
2022-08-17T15:09:46.698Z,23.44
2022-08-17T15:12:34.795Z,22.69
2022-08-17T15:15:12.892Z,23.43
2022-08-17T15:17:46.004Z,23.35
2022-08-17T15:20:39.663Z,23.32
2022-08-17T15:23:20.621Z,22.82
2022-08-17T15:25:58.287Z,22.74
2022-08-17T15:28:36.504Z,23.21
2022-08-17T15:31:09.453Z,23.00
2022-08-17T15:33:47.325Z,23.68
2022-08-17T15:36:28.208Z,23.02
2022-08-17T15:39:06.204Z,22.88
2022-08-17T15:41:38.480Z,23.65
2022-08-17T15:44:18.925Z,23.61
2022-08-17T15:46:52.360Z,23.46
2022-08-17T15:49:39.098Z,23.46
2022-08-17T15:52:31.348Z,23.91
2022-08-17T15:55:09.540Z,22.70
2022-08-17T15:57:47.712Z,21.99
2022-08-17T16:00:24.364Z,21.85
2022-08-17T16:03:45.755Z,21.71
2022-08-17T16:05:59.254Z,20.53
2022-08-17T16:08:43.693Z,21.40
2022-08-17T16:11:26.064Z,20.35
2022-08-17T16:13:59.444Z,20.13
2022-08-17T16:16:42.680Z,19.47
2022-08-17T16:19:23.290Z,18.75
2022-08-17T16:22:02.256Z,19.03
2022-08-17T16:24:56.743Z,18.33
2022-08-17T16:27:35.176Z,18.84
2022-08-17T16:30:17.084Z,17.26
2022-08-17T16:32:58.518Z,17.40
2022-08-17T16:35:35.901Z,17.34
2022-08-17T16:38:12.524Z,17.25
2022-08-17T16:40:47.598Z,17.13
2022-08-17T16:43:25.610Z,17.31
2022-08-17T16:46:03.578Z,17.63
2022-08-17T16:48:38.661Z,17.74
2022-08-17T16:51:16.469Z,16.87
2022-08-17T16:53:59.173Z,17.78
2022-08-17T16:56:35.632Z,17.73
2022-08-17T16:59:41.853Z,18.64
2022-08-17T17:02:27.770Z,18.60
2022-08-17T17:05:31.158Z,17.36
2022-08-17T17:08:07.781Z,18.17
2022-08-17T17:10:49.005Z,20.53
2022-08-17T17:13:35.077Z,23.18
2022-08-17T17:16:21.626Z,24.78
2022-08-17T17:19:16.793Z,25.80
2022-08-17T17:22:12.393Z,27.29
2022-08-17T17:25:11.951Z,28.04
2022-08-17T17:28:19.480Z,29.24
2022-08-17T17:31:09.329Z,29.82
2022-08-17T17:33:48.074Z,30.87
2022-08-17T17:36:25.567Z,31.55
2022-08-17T17:39:33.995Z,33.13
2022-08-17T17:42:14.616Z,33.16
2022-08-17T17:45:17.399Z,33.79
2022-08-17T17:47:53.626Z,33.85
2022-08-17T17:50:57.507Z,34.49
2022-08-17T17:53:50.340Z,35.12
2022-08-17T17:56:44.060Z,35.95
2022-08-17T17:59:49.182Z,36.69
2022-08-17T18:02:51.624Z,37.23
2022-08-17T18:05:51.722Z,37.61
2022-08-17T18:08:37.514Z,38.41
2022-08-17T18:11:42.414Z,38.92
2022-08-17T18:14:46.484Z,39.48
2022-08-17T18:17:22.665Z,39.90
2022-08-17T18:19:57.287Z,40.20
2022-08-17T18:22:31.425Z,40.63
2022-08-17T18:25:25.431Z,41.64
2022-08-17T18:28:14.587Z,42.19
2022-08-17T18:31:04.336Z,43.32
2022-08-17T18:33:51.333Z,43.94
2022-08-17T18:36:42.168Z,44.57
2022-08-17T18:39:27.734Z,45.83
2022-08-17T18:42:06.300Z,46.20
2022-08-17T18:44:44.695Z,46.50
2022-08-17T18:47:27.632Z,46.75
2022-08-17T18:50:05.123Z,47.46
2022-08-17T18:52:55.277Z,49.49
2022-08-17T18:55:32.827Z,48.94
2022-08-17T18:58:20.734Z,49.29
2022-08-17T19:01:01.772Z,49.71
2022-08-17T19:03:50.359Z,49.37
2022-08-17T19:06:39.566Z,49.45
2022-08-17T19:09:34.721Z,50.44
2022-08-17T19:12:16.795Z,50.86
2022-08-17T19:14:56.284Z,51.36
2022-08-17T19:17:41.128Z,51.62
2022-08-17T19:20:21.876Z,51.81
2022-08-17T19:23:23.136Z,52.60
2022-08-17T19:26:05.810Z,52.77
2022-08-17T19:29:25.698Z,52.90
2022-08-17T19:32:06.293Z,53.26
2022-08-17T19:34:47.702Z,53.10
2022-08-17T19:37:47.471Z,53.53
2022-08-17T19:40:52.425Z,53.41
2022-08-17T19:43:56.269Z,53.58
2022-08-17T19:46:56.247Z,54.17
2022-08-17T19:49:58.743Z,54.90
2022-08-17T19:52:42.391Z,54.56
2022-08-17T19:55:39.637Z,54.50
2022-08-17T19:58:35.584Z,54.50
2022-08-17T20:01:17.051Z,54.92
2022-08-17T20:04:11.329Z,55.24
2022-08-17T20:06:57.303Z,55.83
2022-08-17T20:09:47.096Z,56.14
2022-08-17T20:12:26.265Z,56.06
2022-08-17T20:15:14.080Z,56.67
2022-08-17T20:17:53.259Z,56.84
2022-08-17T20:20:56.217Z,57.77
2022-08-17T20:23:54.956Z,57.65
2022-08-17T20:26:51.244Z,57.83
2022-08-17T20:29:56.139Z,58.18
2022-08-17T20:32:32.456Z,58.16
2022-08-17T20:35:26.067Z,58.38
2022-08-17T20:38:10.550Z,57.91
2022-08-17T20:41:03.154Z,57.63
2022-08-17T20:43:53.184Z,57.62
2022-08-17T20:47:05.830Z,57.52
2022-08-17T20:49:47.372Z,57.26
2022-08-17T20:53:19.388Z,57.64
2022-08-17T20:55:58.203Z,57.87
2022-08-17T20:58:37.108Z,58.36
2022-08-17T21:01:20.368Z,58.70
2022-08-17T21:03:55.336Z,59.36
2022-08-17T21:06:56.313Z,60.07
2022-08-17T21:09:41.968Z,60.18
2022-08-17T21:12:36.347Z,60.62
2022-08-17T21:15:25.151Z,61.37
2022-08-17T21:18:38.860Z,62.16
2022-08-17T21:21:48.896Z,62.33
2022-08-17T21:25:04.291Z,62.66
2022-08-17T21:28:03.670Z,63.98
2022-08-17T21:30:58.047Z,63.70
2022-08-17T21:33:44.322Z,63.56
2022-08-17T21:36:31.721Z,63.39
2022-08-17T21:39:30.635Z,63.77
2022-08-17T21:42:12.867Z,63.33
2022-08-17T21:45:01.020Z,62.87
2022-08-17T21:47:36.330Z,63.99
2022-08-17T21:50:32.447Z,66.54
2022-08-17T21:53:11.332Z,68.59
2022-08-17T21:55:49.341Z,69.71
2022-08-17T21:58:40.690Z,71.71
2022-08-17T22:01:21.972Z,73.89
2022-08-17T22:04:16.012Z,74.76
2022-08-17T22:07:05.942Z,74.46
2022-08-17T22:09:49.109Z,72.70
2022-08-17T22:12:27.047Z,69.39
2022-08-17T22:15:21.245Z,62.52
2022-08-17T22:18:09.949Z,59.68
2022-08-17T22:20:53.515Z,59.85
2022-08-17T22:23:51.099Z,60.72
2022-08-17T22:26:49.324Z,61.63
2022-08-17T22:29:53.149Z,61.95
2022-08-17T22:32:48.326Z,65.75
2022-08-17T22:35:44.080Z,68.05
2022-08-17T22:38:30.349Z,68.74
2022-08-17T22:41:41.233Z,69.76
2022-08-17T22:44:58.169Z,70.00
2022-08-17T22:47:48.908Z,70.08
2022-08-17T22:50:35.132Z,69.39
2022-08-17T22:53:40.451Z,69.68
2022-08-17T22:56:40.987Z,70.20
2022-08-17T22:59:23.526Z,70.72
2022-08-17T23:02:13.170Z,71.00
2022-08-17T23:04:53.480Z,71.14
2022-08-17T23:07:31.724Z,71.76
2022-08-17T23:10:16.327Z,71.96
2022-08-17T23:12:57.503Z,72.36
2022-08-17T23:15:39.166Z,72.97
2022-08-17T23:18:17.340Z,73.25
2022-08-17T23:21:01.047Z,73.54
2022-08-17T23:23:51.615Z,74.44
2022-08-17T23:26:26.478Z,75.37
2022-08-17T23:29:07.707Z,76.36
2022-08-17T23:31:43.463Z,77.06
2022-08-17T23:34:20.389Z,78.04
2022-08-17T23:37:05.389Z,79.22
2022-08-17T23:39:47.741Z,79.48
2022-08-17T23:42:26.360Z,80.14
2022-08-17T23:45:10.246Z,80.45
2022-08-17T23:47:53.235Z,81.06
2022-08-17T23:50:41.040Z,81.84
2022-08-17T23:53:12.980Z,82.62
2022-08-17T23:56:06.886Z,83.35
2022-08-17T23:58:55.376Z,84.62
